Accueil
METAR-TAF:

METAR-TAF

Aéroports :

Lecce, Italie

latitude: 40-14N, longitude: 018-09E, altitude: 48 m

Observation

Le bulletin a été fait il y a 56 minutes, à 23:55 UTC
Vent 10 kt de sud
Température 12°C
Humidité 88%
Pression 1024 hPa
Visibilité 10 km ou plus
Nuages épars à une hauteur de 2500 ft

METAR: LIBN 252355Z 17010KT 9999 SCT025 12/10 Q1024 RMK BKN BKN060 VIS MIN 9999 WIND THR14 /////KT WIND THR32 /////KT BLU

Heure: 01:51 (00:51 UTC)

Prévision

Le bulletin a été fait il y a 10 heures et 51 minutes, à 14:00 UTC
Prévision valable du 24 à 15 UTC au 24 à 24 UTC
Vent 5 kt de sud
Visibilité 10 km ou plus
Nuages épars à une hauteur de 2500 ft
Evoluant progressivement
du 24 à 22 UTC au 24 à 23 UTC
Visibilité: 5000 m
Quelques nuages à une hauteur de 500 ft
brume

TAF: LIBN 241400Z 2415/2424 19005KT 9999 SCT025 BECMG 2422/2423 5000 BR FEW005

Observations et prévisions météorologiques de plus de 4000 aéroports (messages METAR et TAF).

Les stations disponibles sont représentées par des disques jaunes et rouges sur la carte.

Passer la souris dessus pour voir le nom de la station.

Cliquer dessus pour voir les observations et prévisions météorologiques.

Pour changer de carte: cliquez sur les boutons verts avec une croix noire pour zoomer, sur le bouton vert avec un tiret pour effectuer un zoom arrière, ou sur les flèches vertes pour les cartes adjacentes.


METAR-TAF: